createdAt,value
2017-03-04T00:00:45.487Z,6.70
2017-03-04T00:01:44.135Z,6.70
2017-03-04T00:02:42.796Z,6.70
2017-03-04T00:03:41.471Z,6.60
2017-03-04T00:04:40.099Z,6.70
2017-03-04T00:05:38.803Z,6.60
2017-03-04T00:06:37.723Z,6.60
2017-03-04T00:07:36.418Z,6.60
2017-03-04T00:08:35.059Z,6.60
2017-03-04T00:09:33.640Z,6.60
2017-03-04T00:10:32.283Z,6.50
2017-03-04T00:11:30.939Z,6.50
2017-03-04T00:12:29.891Z,6.50
2017-03-04T00:13:28.561Z,6.50
2017-03-04T00:14:27.185Z,6.50
2017-03-04T00:15:25.788Z,6.50
2017-03-04T00:16:24.387Z,6.60
2017-03-04T00:17:23.012Z,6.50
2017-03-04T00:18:22.246Z,6.50
2017-03-04T00:19:20.883Z,6.50
2017-03-04T00:20:23.547Z,6.50
2017-03-04T00:21:22.189Z,6.50
2017-03-04T00:22:20.879Z,6.50
2017-03-04T00:23:19.930Z,6.40
2017-03-04T00:24:18.820Z,6.40
2017-03-04T00:25:17.465Z,6.40
2017-03-04T00:26:16.190Z,6.50
2017-03-04T00:27:15.308Z,6.50
2017-03-04T00:28:13.944Z,6.40
2017-03-04T00:29:12.601Z,6.50
2017-03-04T00:30:11.586Z,6.40
2017-03-04T00:31:10.267Z,6.40
2017-03-04T00:32:09.312Z,6.40
2017-03-04T00:33:07.994Z,6.40
2017-03-04T00:34:06.627Z,6.40
2017-03-04T00:35:05.331Z,6.30
2017-03-04T00:36:04.236Z,6.30
2017-03-04T00:37:02.895Z,6.30
2017-03-04T00:38:01.525Z,6.30
2017-03-04T00:39:00.130Z,6.30
2017-03-04T00:39:58.964Z,6.30
2017-03-04T00:40:57.670Z,6.30
2017-03-04T00:41:56.558Z,6.30
2017-03-04T00:42:55.697Z,6.30
2017-03-04T00:43:54.491Z,6.30
2017-03-04T00:44:53.534Z,6.30
2017-03-04T00:45:52.534Z,6.30
2017-03-04T00:46:51.218Z,6.30
2017-03-04T00:47:50.209Z,6.30
2017-03-04T00:48:48.847Z,6.30
2017-03-04T00:49:47.490Z,6.20
2017-03-04T00:50:46.170Z,6.10
2017-03-04T00:51:44.823Z,6.10
2017-03-04T00:52:43.471Z,6.10
2017-03-04T00:53:42.473Z,6.20
2017-03-04T00:54:41.121Z,6.20
2017-03-04T00:55:39.759Z,6.20
2017-03-04T00:56:40.335Z,6.00
2017-03-04T00:57:39.211Z,6.00
2017-03-04T00:58:37.953Z,6.00
2017-03-04T00:59:36.866Z,6.00
2017-03-04T01:00:35.643Z,6.00
2017-03-04T01:01:34.334Z,6.00
2017-03-04T01:02:33.888Z,6.00
2017-03-04T01:03:32.541Z,6.00
2017-03-04T01:04:31.356Z,6.00
2017-03-04T01:05:30.347Z,6.10
2017-03-04T01:06:29.043Z,6.10
2017-03-04T01:07:27.686Z,6.10
2017-03-04T01:08:26.805Z,6.10
2017-03-04T01:09:26.991Z,6.10
2017-03-04T01:10:26.005Z,6.00
2017-03-04T01:11:26.603Z,6.00
2017-03-04T01:12:25.371Z,6.00
2017-03-04T01:13:24.217Z,6.00
2017-03-04T01:14:23.134Z,6.00
2017-03-04T01:15:23.529Z,6.00
2017-03-04T01:16:24.033Z,6.00
2017-03-04T01:17:23.156Z,6.00
2017-03-04T01:18:21.829Z,6.00
2017-03-04T01:19:21.182Z,6.00
2017-03-04T01:20:20.518Z,6.00
2017-03-04T01:21:21.108Z,6.00
2017-03-04T01:22:20.421Z,6.00
2017-03-04T01:23:19.707Z,6.00
2017-03-04T01:24:18.716Z,6.00
2017-03-04T01:25:17.587Z,6.00
2017-03-04T01:26:16.928Z,6.00
2017-03-04T01:27:15.599Z,6.00
2017-03-04T01:28:14.259Z,6.00
2017-03-04T01:29:13.207Z,6.00
2017-03-04T01:30:12.972Z,5.90
2017-03-04T01:31:11.639Z,5.90
2017-03-04T01:32:10.169Z,5.90
2017-03-04T01:33:08.775Z,5.90
2017-03-04T01:34:07.623Z,5.90
2017-03-04T01:35:06.483Z,5.90
2017-03-04T01:36:05.070Z,5.90
2017-03-04T01:37:04.883Z,5.90
2017-03-04T01:38:04.838Z,5.80
2017-03-04T01:39:04.051Z,5.80
2017-03-04T01:40:02.596Z,5.80
2017-03-04T01:41:01.455Z,5.70
2017-03-04T01:42:00.044Z,5.70
2017-03-04T01:42:58.558Z,5.70
2017-03-04T01:43:57.113Z,5.70
2017-03-04T01:44:55.628Z,5.80
2017-03-04T01:45:54.566Z,5.80
2017-03-04T01:46:53.856Z,5.90
2017-03-04T01:47:52.407Z,5.80
2017-03-04T01:48:51.022Z,5.80
2017-03-04T01:49:49.569Z,5.80
2017-03-04T01:50:48.120Z,5.80
2017-03-04T01:51:46.683Z,5.80
2017-03-04T01:52:46.552Z,5.80
2017-03-04T01:53:45.146Z,5.80
2017-03-04T01:54:43.926Z,5.80
2017-03-04T01:55:42.498Z,5.80
2017-03-04T01:56:41.059Z,5.70
2017-03-04T01:57:39.579Z,5.70
2017-03-04T01:58:38.468Z,5.60
2017-03-04T01:59:37.031Z,5.70
2017-03-04T02:00:35.624Z,5.70
2017-03-04T02:01:34.876Z,5.70
2017-03-04T02:02:33.527Z,5.70
2017-03-04T02:03:32.087Z,5.70
2017-03-04T02:04:31.027Z,5.70
2017-03-04T02:05:29.556Z,5.70
2017-03-04T02:06:28.154Z,5.60
2017-03-04T02:07:26.698Z,5.60
2017-03-04T02:08:25.459Z,5.60
2017-03-04T02:09:24.022Z,5.60
2017-03-04T02:10:22.882Z,5.60
2017-03-04T02:11:21.417Z,5.60
2017-03-04T02:12:19.995Z,5.60
2017-03-04T02:13:18.635Z,5.60
2017-03-04T02:14:17.196Z,5.60
2017-03-04T02:15:15.729Z,5.70
2017-03-04T02:16:14.598Z,5.70
2017-03-04T02:17:13.166Z,5.70
2017-03-04T02:18:11.708Z,5.60
2017-03-04T02:19:10.271Z,5.60
2017-03-04T02:20:09.213Z,5.60
2017-03-04T02:21:07.753Z,5.60
2017-03-04T02:22:06.603Z,5.60
2017-03-04T02:23:05.183Z,5.60
2017-03-04T02:24:03.766Z,5.60
2017-03-04T02:25:02.739Z,5.60
2017-03-04T02:26:01.304Z,5.60
2017-03-04T02:26:59.894Z,5.60
2017-03-04T02:27:59.247Z,5.60
2017-03-04T02:28:57.863Z,5.60
2017-03-04T02:29:56.843Z,5.60
2017-03-04T02:30:55.411Z,5.60
2017-03-04T02:31:54.023Z,5.60
2017-03-04T02:32:52.807Z,5.60
2017-03-04T02:33:51.704Z,5.60
2017-03-04T02:34:50.274Z,5.40
2017-03-04T02:35:48.822Z,5.40
2017-03-04T02:36:47.362Z,5.40
2017-03-04T02:37:45.963Z,5.50
2017-03-04T02:38:44.475Z,5.50
2017-03-04T02:39:43.359Z,5.50
2017-03-04T02:40:41.950Z,5.40
2017-03-04T02:41:40.494Z,5.40
2017-03-04T02:42:39.298Z,5.40
2017-03-04T02:43:37.835Z,5.40
2017-03-04T02:44:36.617Z,5.40
2017-03-04T02:45:35.469Z,5.40
2017-03-04T02:46:34.044Z,5.30
2017-03-04T02:47:32.634Z,5.40
2017-03-04T02:48:31.195Z,5.40
2017-03-04T02:49:29.772Z,5.40
2017-03-04T02:50:28.471Z,5.40
2017-03-04T02:51:27.357Z,5.40
2017-03-04T02:52:25.951Z,5.40
2017-03-04T02:53:24.560Z,5.40
2017-03-04T02:54:23.115Z,5.40
2017-03-04T02:55:21.659Z,5.40
2017-03-04T02:56:20.230Z,5.40
2017-03-04T02:57:19.079Z,5.40
2017-03-04T02:58:17.612Z,5.40
2017-03-04T02:59:16.538Z,5.40
2017-03-04T03:00:15.119Z,5.50
2017-03-04T03:01:13.732Z,5.50
2017-03-04T03:02:12.756Z,5.30
2017-03-04T03:03:11.776Z,5.30
2017-03-04T03:04:10.383Z,5.40
2017-03-04T03:05:08.974Z,5.40
2017-03-04T03:06:07.547Z,5.50
2017-03-04T03:07:06.565Z,5.40
2017-03-04T03:08:05.147Z,5.40
2017-03-04T03:09:04.133Z,5.50
2017-03-04T03:10:02.685Z,5.40
2017-03-04T03:11:01.311Z,5.30
2017-03-04T03:11:59.894Z,5.30
2017-03-04T03:12:58.431Z,5.40
2017-03-04T03:13:57.042Z,5.40
2017-03-04T03:14:55.981Z,5.50
2017-03-04T03:15:54.591Z,5.40
2017-03-04T03:16:53.231Z,5.30
2017-03-04T03:17:51.799Z,5.40
2017-03-04T03:18:50.363Z,5.40
2017-03-04T03:19:48.934Z,5.40
2017-03-04T03:20:47.844Z,5.40
2017-03-04T03:21:46.403Z,5.40
2017-03-04T03:22:44.937Z,5.40
2017-03-04T03:23:43.562Z,5.40
2017-03-04T03:24:42.139Z,5.50
2017-03-04T03:25:40.689Z,5.40
2017-03-04T03:26:39.570Z,5.40
2017-03-04T03:27:38.108Z,5.40
2017-03-04T03:28:36.700Z,5.40
2017-03-04T03:29:35.321Z,5.30
2017-03-04T03:30:33.868Z,5.30
2017-03-04T03:31:32.434Z,5.40
2017-03-04T03:32:31.411Z,5.40
2017-03-04T03:33:30.320Z,5.40
2017-03-04T03:34:28.872Z,5.40
2017-03-04T03:35:27.405Z,5.40
2017-03-04T03:36:25.955Z,5.30
2017-03-04T03:37:24.540Z,5.40
2017-03-04T03:38:23.789Z,5.30
2017-03-04T03:39:22.328Z,5.30
2017-03-04T03:40:20.887Z,5.40
2017-03-04T03:41:19.455Z,5.30
2017-03-04T03:42:18.024Z,5.30
2017-03-04T03:43:16.631Z,5.30
2017-03-04T03:44:15.522Z,5.30
2017-03-04T03:45:14.367Z,5.30
2017-03-04T03:46:13.286Z,5.40
2017-03-04T03:47:11.792Z,5.30
2017-03-04T03:48:10.325Z,5.40
2017-03-04T03:49:08.855Z,5.40
2017-03-04T03:50:07.783Z,5.30
2017-03-04T03:51:06.358Z,5.20
2017-03-04T03:52:04.982Z,5.20
2017-03-04T03:53:03.585Z,5.20
2017-03-04T03:54:02.402Z,5.20
2017-03-04T03:55:00.907Z,5.10
2017-03-04T03:55:59.755Z,5.10
2017-03-04T03:56:58.360Z,5.10
2017-03-04T03:57:57.022Z,5.10
2017-03-04T03:58:55.569Z,5.10
2017-03-04T03:59:54.123Z,5.20
2017-03-04T04:00:52.788Z,5.10
2017-03-04T04:01:51.591Z,5.10
2017-03-04T04:02:50.105Z,5.00
2017-03-04T04:03:48.626Z,5.00
2017-03-04T04:04:47.198Z,5.10
2017-03-04T04:05:45.747Z,5.10
2017-03-04T04:06:44.319Z,5.10
2017-03-04T04:07:43.212Z,5.10
2017-03-04T04:08:41.738Z,5.10
2017-03-04T04:09:40.687Z,5.10
2017-03-04T04:10:39.222Z,5.10
2017-03-04T04:11:37.765Z,5.10
2017-03-04T04:12:36.728Z,5.10
2017-03-04T04:13:35.578Z,5.00
2017-03-04T04:14:34.154Z,5.00
2017-03-04T04:15:32.715Z,5.00
2017-03-04T04:16:31.284Z,5.00
2017-03-04T04:17:29.813Z,5.00
2017-03-04T04:18:28.781Z,5.00
2017-03-04T04:19:27.638Z,5.00
2017-03-04T04:20:26.164Z,5.00
2017-03-04T04:21:24.679Z,5.00
2017-03-04T04:22:23.242Z,5.00
2017-03-04T04:23:21.837Z,4.90
2017-03-04T04:24:20.412Z,4.90
2017-03-04T04:25:19.280Z,4.90
2017-03-04T04:26:17.839Z,4.90
2017-03-04T04:27:16.347Z,4.90
2017-03-04T04:28:14.902Z,4.90
2017-03-04T04:29:13.621Z,4.90
2017-03-04T04:30:12.160Z,4.90
2017-03-04T04:31:11.241Z,4.90
2017-03-04T04:32:09.814Z,4.80
2017-03-04T04:33:08.359Z,4.80
2017-03-04T04:34:06.867Z,4.80
2017-03-04T04:35:05.470Z,4.80
2017-03-04T04:36:04.088Z,4.80
2017-03-04T04:37:02.920Z,4.80
2017-03-04T04:38:01.485Z,4.80
2017-03-04T04:39:00.391Z,4.70
2017-03-04T04:39:58.962Z,4.70
2017-03-04T04:40:57.531Z,4.70
2017-03-04T04:41:56.106Z,4.70
2017-03-04T04:42:54.919Z,4.70
2017-03-04T04:43:53.426Z,4.70
2017-03-04T04:44:51.979Z,4.80
2017-03-04T04:45:50.531Z,4.80
2017-03-04T04:46:49.210Z,4.70
2017-03-04T04:47:48.295Z,4.70
2017-03-04T04:48:47.184Z,4.80
2017-03-04T04:49:45.855Z,4.80
2017-03-04T04:50:44.414Z,4.80
2017-03-04T04:51:42.918Z,4.70
2017-03-04T04:52:41.497Z,4.70
2017-03-04T04:53:40.014Z,4.80
2017-03-04T04:54:38.922Z,4.80
2017-03-04T04:55:37.476Z,4.80
2017-03-04T04:56:35.977Z,4.80
2017-03-04T04:57:34.502Z,4.90
2017-03-04T04:58:33.045Z,4.90
2017-03-04T04:59:31.571Z,5.00
2017-03-04T05:00:30.469Z,4.90
2017-03-04T05:01:28.999Z,4.90
2017-03-04T05:02:27.610Z,4.80
2017-03-04T05:03:26.141Z,4.80
2017-03-04T05:04:25.060Z,4.80
2017-03-04T05:05:23.615Z,4.80
2017-03-04T05:06:22.531Z,4.80
2017-03-04T05:07:21.068Z,4.80
2017-03-04T05:08:19.647Z,4.80
2017-03-04T05:09:18.198Z,4.80
2017-03-04T05:10:16.747Z,4.90
2017-03-04T05:11:15.325Z,4.80
2017-03-04T05:12:14.566Z,4.80
2017-03-04T05:13:13.122Z,4.90
2017-03-04T05:14:11.667Z,4.90
2017-03-04T05:15:10.585Z,4.90
2017-03-04T05:16:09.084Z,4.90
2017-03-04T05:17:07.630Z,4.90
2017-03-04T05:18:06.527Z,4.90
2017-03-04T05:19:05.039Z,4.90
2017-03-04T05:20:03.604Z,4.90
2017-03-04T05:21:02.603Z,5.00
2017-03-04T05:22:01.160Z,5.00
2017-03-04T05:23:00.115Z,4.80
2017-03-04T05:23:58.960Z,4.80
2017-03-04T05:24:57.475Z,4.80
2017-03-04T05:25:56.011Z,4.90
2017-03-04T05:26:54.524Z,4.90
2017-03-04T05:27:53.150Z,5.00
2017-03-04T05:28:51.700Z,5.00
2017-03-04T05:29:50.624Z,5.00
2017-03-04T05:30:49.471Z,5.00
2017-03-04T05:31:48.058Z,5.00
2017-03-04T05:32:46.599Z,4.90
2017-03-04T05:33:45.135Z,4.90
2017-03-04T05:34:43.673Z,4.80
2017-03-04T05:35:42.812Z,4.80
2017-03-04T05:36:41.362Z,4.70
2017-03-04T05:37:39.906Z,4.80
2017-03-04T05:38:38.449Z,4.80
2017-03-04T05:39:36.988Z,4.80
2017-03-04T05:40:35.539Z,4.80
2017-03-04T05:41:34.418Z,4.80
2017-03-04T05:42:32.969Z,4.70
2017-03-04T05:43:31.507Z,4.60
2017-03-04T05:44:29.998Z,4.60
2017-03-04T05:45:28.564Z,4.70
2017-03-04T05:46:27.137Z,4.70
2017-03-04T05:47:25.939Z,4.70
2017-03-04T05:48:24.472Z,4.70
2017-03-04T05:49:23.022Z,4.60
2017-03-04T05:50:21.600Z,4.50
2017-03-04T05:51:20.134Z,4.50
2017-03-04T05:52:18.684Z,4.60
2017-03-04T05:53:18.017Z,4.60
2017-03-04T05:54:16.547Z,4.60
2017-03-04T05:55:15.431Z,4.60
2017-03-04T05:56:13.980Z,4.60
2017-03-04T05:57:12.505Z,4.70
2017-03-04T05:58:11.024Z,4.70
2017-03-04T05:59:09.864Z,4.60
2017-03-04T06:00:08.415Z,4.70
2017-03-04T06:01:07.076Z,4.70
2017-03-04T06:02:05.726Z,4.70
2017-03-04T06:03:04.246Z,4.70
2017-03-04T06:04:02.782Z,4.70
2017-03-04T06:05:01.611Z,4.70
2017-03-04T06:06:00.103Z,4.60
2017-03-04T06:06:58.677Z,4.50
2017-03-04T06:07:57.191Z,4.60
2017-03-04T06:08:56.139Z,4.60
2017-03-04T06:09:54.645Z,4.60
2017-03-04T06:10:53.456Z,4.50
2017-03-04T06:11:51.974Z,4.40
2017-03-04T06:12:50.908Z,4.40
2017-03-04T06:13:49.735Z,4.40
2017-03-04T06:14:48.635Z,4.50
2017-03-04T06:15:47.196Z,4.40
2017-03-04T06:16:45.975Z,4.50
2017-03-04T06:17:44.883Z,4.50
2017-03-04T06:18:43.436Z,4.50
2017-03-04T06:19:41.980Z,4.50
2017-03-04T06:20:40.886Z,4.50
2017-03-04T06:21:39.448Z,4.50
2017-03-04T06:22:38.270Z,4.50
2017-03-04T06:23:36.777Z,4.50
2017-03-04T06:24:35.326Z,4.50
2017-03-04T06:25:34.117Z,4.50
2017-03-04T06:26:32.695Z,4.40
2017-03-04T06:27:31.239Z,4.50
2017-03-04T06:28:30.444Z,4.50
2017-03-04T06:29:28.987Z,4.60
2017-03-04T06:30:27.558Z,4.60
2017-03-04T06:31:26.090Z,4.60
2017-03-04T06:32:24.656Z,4.40
2017-03-04T06:33:23.255Z,4.40
2017-03-04T06:34:22.192Z,4.40
2017-03-04T06:35:20.730Z,4.40
2017-03-04T06:36:19.282Z,4.50
2017-03-04T06:37:17.869Z,4.60
2017-03-04T06:38:16.424Z,4.60
2017-03-04T06:39:15.087Z,4.60
2017-03-04T06:40:14.287Z,4.70
2017-03-04T06:41:12.830Z,4.70
2017-03-04T06:42:11.387Z,4.70
2017-03-04T06:43:09.939Z,4.80
2017-03-04T06:44:08.487Z,4.80
2017-03-04T06:45:07.036Z,4.80
2017-03-04T06:46:06.299Z,4.80
2017-03-04T06:47:05.349Z,4.80
2017-03-04T06:48:04.446Z,4.80
2017-03-04T06:49:03.813Z,4.90
2017-03-04T06:50:02.927Z,4.90
2017-03-04T06:51:01.793Z,4.90
2017-03-04T06:52:01.252Z,4.90
2017-03-04T06:53:02.832Z,5.00
2017-03-04T06:54:03.325Z,5.00
2017-03-04T06:55:02.867Z,5.00
2017-03-04T06:56:02.409Z,5.10
2017-03-04T06:57:02.103Z,5.10
2017-03-04T06:58:01.836Z,5.10
2017-03-04T06:59:01.075Z,5.10
2017-03-04T07:00:00.831Z,5.10
2017-03-04T07:01:01.792Z,5.20
2017-03-04T07:02:00.802Z,5.20
2017-03-04T07:02:59.648Z,5.30
2017-03-04T07:03:58.720Z,5.30
2017-03-04T07:04:58.191Z,5.30
2017-03-04T07:05:57.376Z,5.30
2017-03-04T07:06:56.817Z,5.30
2017-03-04T07:07:56.267Z,5.40
2017-03-04T07:08:55.256Z,5.40
2017-03-04T07:09:54.386Z,5.40
2017-03-04T07:10:53.224Z,5.50
2017-03-04T07:11:52.001Z,5.50
2017-03-04T07:12:50.890Z,5.50
2017-03-04T07:13:50.616Z,5.50
2017-03-04T07:14:50.614Z,5.50
2017-03-04T07:15:50.221Z,5.60
2017-03-04T07:16:49.412Z,5.50
2017-03-04T07:17:49.202Z,5.60
2017-03-04T07:18:50.745Z,5.60
2017-03-04T07:19:49.585Z,5.70
2017-03-04T07:20:48.608Z,5.70
2017-03-04T07:21:47.985Z,5.70
2017-03-04T07:22:49.999Z,5.70
2017-03-04T07:23:48.924Z,5.70
2017-03-04T07:24:49.156Z,5.80
2017-03-04T07:25:48.147Z,5.80
2017-03-04T07:26:47.275Z,5.80
2017-03-04T07:27:46.471Z,5.80
2017-03-04T07:28:45.609Z,5.80
2017-03-04T07:29:45.047Z,5.80
2017-03-04T07:30:45.113Z,5.90
2017-03-04T07:31:44.789Z,5.90
2017-03-04T07:32:44.837Z,5.90
2017-03-04T07:33:44.068Z,6.00
2017-03-04T07:34:42.940Z,6.00
2017-03-04T07:35:41.618Z,6.00
2017-03-04T07:36:40.870Z,6.00
2017-03-04T07:37:40.063Z,6.00
2017-03-04T07:38:39.380Z,6.10
2017-03-04T07:39:38.265Z,6.10
2017-03-04T07:40:37.479Z,6.10
2017-03-04T07:41:36.661Z,6.10
2017-03-04T07:42:36.157Z,6.20
2017-03-04T07:43:34.764Z,6.20
2017-03-04T07:44:33.833Z,6.10
2017-03-04T07:45:32.695Z,6.20
2017-03-04T07:46:31.711Z,6.20
2017-03-04T07:47:30.737Z,6.20
2017-03-04T07:48:30.851Z,6.30
2017-03-04T07:49:29.616Z,6.40
2017-03-04T07:50:28.765Z,6.40
2017-03-04T07:51:28.290Z,6.40
2017-03-04T07:52:27.347Z,6.40
2017-03-04T07:53:26.212Z,6.50
2017-03-04T07:54:26.436Z,6.50
2017-03-04T07:55:25.980Z,6.50
2017-03-04T07:56:24.982Z,6.50
2017-03-04T07:57:24.295Z,6.50
2017-03-04T07:58:23.448Z,6.60
2017-03-04T07:59:22.934Z,6.60
2017-03-04T08:00:22.196Z,6.60
2017-03-04T08:01:21.531Z,6.60
2017-03-04T08:02:26.885Z,6.70
2017-03-04T08:03:25.587Z,6.70
2017-03-04T08:04:24.819Z,6.60
2017-03-04T08:05:24.779Z,6.60
2017-03-04T08:06:24.421Z,6.60
2017-03-04T08:07:23.291Z,6.70
2017-03-04T08:08:22.013Z,6.70
2017-03-04T08:09:21.187Z,6.70
2017-03-04T08:10:20.294Z,6.60
2017-03-04T08:11:19.879Z,6.60
2017-03-04T08:12:18.651Z,6.70
2017-03-04T08:13:20.148Z,6.70
2017-03-04T08:14:20.814Z,6.70
2017-03-04T08:15:21.728Z,6.70
2017-03-04T08:16:21.592Z,6.70
2017-03-04T08:17:24.923Z,6.70
2017-03-04T08:18:24.256Z,6.80
2017-03-04T08:19:23.539Z,6.80
2017-03-04T08:20:22.553Z,6.80
2017-03-04T08:21:21.782Z,6.90
2017-03-04T08:22:23.016Z,7.00
2017-03-04T08:23:21.865Z,7.00
2017-03-04T08:24:21.033Z,7.00
2017-03-04T08:25:20.119Z,7.00
2017-03-04T08:26:18.997Z,7.10
2017-03-04T08:27:20.196Z,7.10
2017-03-04T08:28:19.922Z,7.00
2017-03-04T08:29:19.316Z,7.10
2017-03-04T08:30:18.424Z,7.10
2017-03-04T08:31:17.578Z,7.10
2017-03-04T08:32:17.557Z,7.10
2017-03-04T08:33:17.425Z,7.10
2017-03-04T08:34:16.519Z,7.10
2017-03-04T08:35:15.287Z,7.10
2017-03-04T08:36:14.475Z,7.10
2017-03-04T08:37:14.470Z,7.20
2017-03-04T08:38:13.867Z,7.20
2017-03-04T08:39:16.149Z,7.20
2017-03-04T08:40:15.417Z,7.20
2017-03-04T08:41:15.365Z,7.20
2017-03-04T08:42:14.495Z,7.20
2017-03-04T08:43:13.896Z,7.20
2017-03-04T08:44:14.095Z,7.20
2017-03-04T08:45:13.546Z,7.30
2017-03-04T08:46:13.404Z,7.30
2017-03-04T08:47:14.210Z,7.40
2017-03-04T08:48:16.149Z,7.40
2017-03-04T08:49:16.153Z,7.40
2017-03-04T08:50:16.315Z,7.40
2017-03-04T08:51:15.445Z,7.40
2017-03-04T08:52:15.715Z,7.40
2017-03-04T08:53:15.039Z,7.50
2017-03-04T08:54:14.034Z,7.50
2017-03-04T08:55:15.176Z,7.50
2017-03-04T08:56:15.236Z,7.50
2017-03-04T08:57:13.996Z,7.60
2017-03-04T08:58:13.854Z,7.60
2017-03-04T08:59:12.661Z,7.60
2017-03-04T09:00:11.887Z,7.60
2017-03-04T09:01:11.555Z,7.70
2017-03-04T09:02:11.324Z,7.70
2017-03-04T09:03:10.542Z,7.70
2017-03-04T09:04:09.899Z,7.80
2017-03-04T09:05:10.195Z,7.80
2017-03-04T09:06:09.726Z,7.80
2017-03-04T09:07:09.336Z,7.80
2017-03-04T09:08:09.502Z,7.90
2017-03-04T09:09:10.048Z,7.80
2017-03-04T09:10:09.338Z,7.80
2017-03-04T09:11:08.339Z,7.90
2017-03-04T09:12:08.135Z,7.90
2017-03-04T09:13:08.461Z,8.00
2017-03-04T09:14:08.500Z,8.00
2017-03-04T09:15:08.083Z,8.00
2017-03-04T09:16:08.080Z,8.10
2017-03-04T09:17:07.214Z,8.10
2017-03-04T09:18:06.960Z,8.10
2017-03-04T09:19:08.224Z,8.10
2017-03-04T09:20:08.340Z,8.10
2017-03-04T09:21:08.343Z,8.10
2017-03-04T09:22:07.580Z,8.10
2017-03-04T09:23:07.004Z,8.20
2017-03-04T09:24:06.816Z,8.20
2017-03-04T09:25:06.613Z,8.20
2017-03-04T09:26:06.075Z,8.20
2017-03-04T09:27:04.902Z,8.20
2017-03-04T09:28:04.100Z,8.30
2017-03-04T09:29:03.472Z,8.30
2017-03-04T09:30:02.286Z,8.40
2017-03-04T09:31:04.533Z,8.40
2017-03-04T09:32:08.256Z,8.40
2017-03-04T09:33:10.555Z,8.50
2017-03-04T09:34:10.110Z,8.50
2017-03-04T09:35:12.126Z,8.50
2017-03-04T09:36:11.323Z,8.50
2017-03-04T09:37:09.899Z,8.50
2017-03-04T09:38:09.993Z,8.60
2017-03-04T09:39:09.561Z,8.50
2017-03-04T09:40:08.256Z,8.50
2017-03-04T09:41:06.999Z,8.50
2017-03-04T09:42:06.085Z,8.60
2017-03-04T09:43:05.737Z,8.60
2017-03-04T09:44:07.435Z,8.60
2017-03-04T09:45:06.254Z,8.60
2017-03-04T09:46:05.386Z,8.60
2017-03-04T09:47:04.340Z,8.60
2017-03-04T09:48:08.576Z,8.60
2017-03-04T09:49:07.237Z,8.60
2017-03-04T09:50:05.832Z,8.70
2017-03-04T09:51:06.556Z,8.70
2017-03-04T09:52:05.978Z,8.60
2017-03-04T09:53:04.975Z,8.70
2017-03-04T09:54:03.939Z,8.80
2017-03-04T09:55:02.764Z,8.90
2017-03-04T09:56:01.522Z,8.90
2017-03-04T09:57:01.981Z,9.00
2017-03-04T09:58:00.903Z,9.00
2017-03-04T09:58:59.958Z,9.00
2017-03-04T09:59:59.108Z,9.10
2017-03-04T10:00:57.743Z,9.10
2017-03-04T10:01:57.327Z,9.20
2017-03-04T10:02:57.327Z,9.20
2017-03-04T10:03:56.070Z,9.30
2017-03-04T10:04:54.663Z,9.30
2017-03-04T10:05:54.871Z,9.30
2017-03-04T10:06:54.752Z,9.30
2017-03-04T10:07:53.582Z,9.40
2017-03-04T10:08:52.524Z,9.40
2017-03-04T10:09:52.239Z,9.40
2017-03-04T10:10:51.379Z,9.50
2017-03-04T10:11:50.382Z,9.50
2017-03-04T10:12:49.327Z,9.50
2017-03-04T10:13:48.820Z,9.60
2017-03-04T10:14:47.854Z,9.70
2017-03-04T10:15:47.885Z,9.70
2017-03-04T10:16:47.571Z,9.80
2017-03-04T10:17:46.689Z,9.80
2017-03-04T10:18:45.741Z,9.80
2017-03-04T10:19:44.871Z,9.80
2017-03-04T10:20:43.672Z,9.70
2017-03-04T10:21:42.271Z,9.80
2017-03-04T10:22:41.443Z,9.90
2017-03-04T10:23:40.730Z,10.00
2017-03-04T10:24:39.647Z,10.10
2017-03-04T10:25:38.866Z,10.20
2017-03-04T10:26:37.508Z,10.20
2017-03-04T10:27:36.656Z,10.20
2017-03-04T10:28:35.834Z,10.30
2017-03-04T10:29:35.027Z,10.30
2017-03-04T10:30:34.539Z,10.30
2017-03-04T10:31:33.567Z,10.30
2017-03-04T10:32:32.743Z,10.30
2017-03-04T10:33:32.276Z,10.30
2017-03-04T10:34:31.080Z,10.30
2017-03-04T10:35:30.334Z,10.30
2017-03-04T10:36:29.192Z,10.30
2017-03-04T10:37:28.390Z,10.40
2017-03-04T10:38:27.762Z,10.50
2017-03-04T10:39:26.471Z,10.50
2017-03-04T10:40:25.215Z,10.20
2017-03-04T10:41:24.722Z,10.10
2017-03-04T10:42:23.626Z,10.00
2017-03-04T10:43:22.404Z,10.10
2017-03-04T10:44:21.435Z,10.30
2017-03-04T10:45:20.970Z,10.30
2017-03-04T10:46:19.925Z,10.40
2017-03-04T10:47:18.927Z,10.50
2017-03-04T10:48:17.703Z,10.50
2017-03-04T10:49:17.020Z,10.40
2017-03-04T10:50:15.571Z,10.40
2017-03-04T10:51:14.195Z,10.40
2017-03-04T10:52:13.411Z,10.40
2017-03-04T10:53:13.151Z,10.50
2017-03-04T10:54:12.056Z,10.60
2017-03-04T10:55:10.821Z,10.60
2017-03-04T10:56:09.618Z,10.60
2017-03-04T10:57:08.680Z,10.70
2017-03-04T10:58:07.353Z,10.80
2017-03-04T10:59:06.212Z,10.90
2017-03-04T11:00:05.648Z,11.00
2017-03-04T11:01:05.577Z,11.00
2017-03-04T11:02:04.738Z,11.00
2017-03-04T11:03:03.306Z,11.00
2017-03-04T11:04:01.915Z,11.00
2017-03-04T11:05:00.931Z,11.10
2017-03-04T11:05:59.892Z,11.10
2017-03-04T11:06:58.894Z,11.20
2017-03-04T11:07:58.339Z,11.30
2017-03-04T11:08:57.675Z,11.30
2017-03-04T11:09:57.210Z,11.30
2017-03-04T11:10:55.783Z,11.40
2017-03-04T11:11:53.515Z,11.50
2017-03-04T11:12:51.608Z,11.50
2017-03-04T11:13:49.409Z,13.30
2017-03-04T11:14:47.872Z,13.10
2017-03-04T11:15:45.996Z,12.90
2017-03-04T11:16:44.674Z,12.90
2017-03-04T11:17:43.467Z,12.80
2017-03-04T11:18:41.291Z,12.70
2017-03-04T11:19:39.858Z,12.70
2017-03-04T11:20:37.714Z,12.70
2017-03-04T11:21:35.700Z,12.70
2017-03-04T11:22:33.843Z,12.70
2017-03-04T11:23:32.014Z,12.60
2017-03-04T11:24:29.764Z,12.70
2017-03-04T11:25:27.626Z,12.60
2017-03-04T11:26:25.846Z,12.60
2017-03-04T11:27:24.239Z,12.70
2017-03-04T11:28:22.302Z,12.70
2017-03-04T11:29:20.582Z,12.70
2017-03-04T11:30:18.552Z,12.70
2017-03-04T11:31:16.991Z,12.70
2017-03-04T11:32:15.037Z,12.70
2017-03-04T11:33:12.866Z,12.70
2017-03-04T11:34:11.468Z,12.80
2017-03-04T11:35:09.224Z,12.80
2017-03-04T11:36:06.994Z,12.80
2017-03-04T11:37:05.857Z,12.90
2017-03-04T11:38:03.854Z,13.00
2017-03-04T11:39:01.619Z,13.00
2017-03-04T11:39:59.893Z,13.00
2017-03-04T11:40:57.754Z,13.10
2017-03-04T11:41:56.362Z,13.20
2017-03-04T11:42:54.124Z,13.20
2017-03-04T11:43:51.899Z,13.20
2017-03-04T11:44:49.621Z,13.20
2017-03-04T11:45:48.322Z,13.20
2017-03-04T11:46:46.139Z,13.20
2017-03-04T11:47:45.358Z,13.30
2017-03-04T11:48:43.497Z,13.30
2017-03-04T11:49:41.318Z,13.30
2017-03-04T11:50:39.894Z,13.40
2017-03-04T11:51:37.991Z,13.50
2017-03-04T11:52:36.647Z,13.50
2017-03-04T11:53:35.792Z,13.50
2017-03-04T11:54:33.535Z,13.50
2017-03-04T11:55:31.490Z,13.50
2017-03-04T11:56:29.402Z,13.50
2017-03-04T11:57:27.526Z,13.60
2017-03-04T11:58:25.382Z,13.70
2017-03-04T11:59:23.422Z,13.70
2017-03-04T12:00:21.382Z,13.70
2017-03-04T12:01:19.365Z,13.60
2017-03-04T12:02:17.191Z,13.60
2017-03-04T12:03:15.592Z,13.60
2017-03-04T12:04:13.334Z,13.60
2017-03-04T12:05:12.403Z,13.60
2017-03-04T12:06:10.324Z,13.60
2017-03-04T12:07:08.930Z,13.70
2017-03-04T12:08:06.933Z,13.70
2017-03-04T12:09:05.591Z,13.70
2017-03-04T12:10:03.801Z,13.70
2017-03-04T12:11:02.054Z,13.70
2017-03-04T12:12:00.353Z,13.70
2017-03-04T12:12:58.200Z,13.80
2017-03-04T12:13:56.275Z,13.80
2017-03-04T12:14:54.619Z,13.80
2017-03-04T12:15:52.561Z,13.80
2017-03-04T12:16:51.028Z,13.70
2017-03-04T12:17:48.863Z,13.80
2017-03-04T12:18:46.951Z,13.80
2017-03-04T12:19:45.347Z,13.80
2017-03-04T12:20:45.106Z,13.80
2017-03-04T12:21:44.611Z,15.40
2017-03-04T12:22:43.685Z,15.40
2017-03-04T12:23:43.145Z,15.50
2017-03-04T12:24:42.334Z,15.50
2017-03-04T12:25:41.527Z,15.40
2017-03-04T12:26:40.674Z,15.30
2017-03-04T12:27:39.888Z,15.20
2017-03-04T12:28:38.669Z,15.20
2017-03-04T12:29:38.038Z,15.30
2017-03-04T12:30:37.574Z,15.30
2017-03-04T12:31:41.407Z,15.30
2017-03-04T12:32:41.035Z,15.40
2017-03-04T12:33:39.893Z,15.50
2017-03-04T12:34:38.724Z,15.50
2017-03-04T12:35:40.615Z,15.60
2017-03-04T12:36:39.472Z,15.60
2017-03-04T12:37:38.522Z,15.70
2017-03-04T12:38:38.226Z,15.80
2017-03-04T12:39:37.635Z,15.90
2017-03-04T12:40:36.638Z,15.90
2017-03-04T12:41:35.685Z,16.00
2017-03-04T12:42:34.278Z,16.10
2017-03-04T12:43:33.858Z,16.10
2017-03-04T12:44:32.867Z,16.10
2017-03-04T12:45:32.078Z,16.10
2017-03-04T12:46:32.749Z,16.20
2017-03-04T12:47:32.413Z,16.30
2017-03-04T12:48:32.574Z,16.30
2017-03-04T12:49:31.828Z,16.20
2017-03-04T12:50:30.748Z,16.20
2017-03-04T12:51:29.753Z,16.20
2017-03-04T12:52:29.144Z,16.20
2017-03-04T12:53:30.482Z,16.20
2017-03-04T12:54:30.615Z,16.20
2017-03-04T12:55:30.634Z,16.30
2017-03-04T12:56:30.088Z,16.20
2017-03-04T12:57:32.422Z,16.20
2017-03-04T12:58:35.131Z,16.20
2017-03-04T12:59:35.998Z,16.30
2017-03-04T13:00:34.783Z,16.30